Time;durP1;ratioP1;P1;durP2;ratioP2;P2;SDS_P1;SDS_P2;PMS_P1;PMS_P2;Temp;Humidity;BMP_temperature;BMP_pressure;BME280_temperature;BME280_humidity;BME280_pressure;Samples;Min_cycle;Max_cycle;Signal;HPM_P1;HPM_P2
2023/12/28 00:01:29;;;;;;;16.17;4.22;;;;;;;;;;5086570;28;20043;-63
2023/12/28 00:03:55;;;;;;;8.77;3.75;;;;;;;;;;5092727;28;20468;-63
2023/12/28 00:06:21;;;;;;;10.57;5.10;;;;;;;;;;5088618;28;20038;-63
2023/12/28 00:08:48;;;;;;;11.63;4.18;;;;;;;;;;5101002;28;20126;-63
2023/12/28 00:11:14;;;;;;;13.75;4.80;;;;;;;;;;5102323;28;20039;-64
2023/12/28 00:13:41;;;;;;;12.60;4.03;;;;;;;;;;5102853;28;20046;-64
2023/12/28 00:16:07;;;;;;;13.32;4.03;;;;;;;;;;5096704;27;20047;-64
2023/12/28 00:18:33;;;;;;;13.23;3.78;;;;;;;;;;5096813;28;20039;-64
2023/12/28 00:20:59;;;;;;;16.70;4.10;;;;;;;;;;5090761;28;20118;-63
2023/12/28 00:23:25;;;;;;;20.33;4.63;;;;;;;;;;5099999;28;20115;-63
2023/12/28 00:25:51;;;;;;;20.65;4.07;;;;;;;;;;5098211;28;20128;-64
2023/12/28 00:28:18;;;;;;;21.02;4.82;;;;;;;;;;5093841;27;20043;-63
2023/12/28 00:30:44;;;;;;;23.05;4.88;;;;;;;;;;5096301;27;20091;-63
2023/12/28 00:33:10;;;;;;;27.67;5.72;;;;;;;;;;5121217;27;20424;-63
2023/12/28 00:35:36;;;;;;;23.30;4.90;;;;;;;;;;5117119;27;20126;-63
2023/12/28 00:38:02;;;;;;;20.27;3.83;;;;;;;;;;5100837;27;20035;-63
2023/12/28 00:40:30;;;;;;;23.80;4.80;;;;;;;;;;5097637;27;20092;-63
2023/12/28 00:42:56;;;;;;;29.60;4.93;;;;;;;;;;5119027;27;20036;-63
2023/12/28 00:45:22;;;;;;;26.58;5.13;;;;;;;;;;5099886;27;20051;-64
2023/12/28 00:47:49;;;;;;;27.13;4.10;;;;;;;;;;5097973;27;20432;-64
2023/12/28 00:50:16;;;;;;;27.48;4.03;;;;;;;;;;5097295;27;20047;-63
2023/12/28 00:52:42;;;;;;;24.30;3.97;;;;;;;;;;5101698;27;20462;-63
2023/12/28 00:55:08;;;;;;;26.63;4.95;;;;;;;;;;5118161;27;20100;-64
2023/12/28 00:57:34;;;;;;;22.38;4.85;;;;;;;;;;5120682;27;20050;-63
2023/12/28 01:00:01;;;;;;;32.90;5.35;;;;;;;;;;5114658;27;20134;-64
2023/12/28 01:02:28;;;;;;;30.75;4.45;;;;;;;;;;5100516;27;20075;-63
2023/12/28 01:04:54;;;;;;;30.40;6.00;;;;;;;;;;5118148;27;20053;-63
2023/12/28 01:07:20;;;;;;;29.38;5.30;;;;;;;;;;5118386;27;20126;-63
2023/12/28 01:09:46;;;;;;;33.50;4.93;;;;;;;;;;5101214;27;20523;-63
2023/12/28 01:12:12;;;;;;;28.33;4.90;;;;;;;;;;5126141;27;20066;-64
2023/12/28 01:14:39;;;;;;;24.70;4.35;;;;;;;;;;5121147;27;20127;-64
2023/12/28 01:17:05;;;;;;;19.45;4.30;;;;;;;;;;5098994;27;20062;-63
2023/12/28 01:19:31;;;;;;;27.15;4.75;;;;;;;;;;5119730;27;20108;-64
2023/12/28 01:21:57;;;;;;;27.25;5.63;;;;;;;;;;5120470;27;20051;-64
2023/12/28 01:24:24;;;;;;;40.40;6.57;;;;;;;;;;5094521;27;20473;-64
2023/12/28 01:26:50;;;;;;;34.38;5.30;;;;;;;;;;5117884;27;20138;-63
2023/12/28 01:29:16;;;;;;;30.35;4.63;;;;;;;;;;5100427;27;20051;-64
2023/12/28 01:31:42;;;;;;;33.85;5.82;;;;;;;;;;5098943;27;20070;-64
2023/12/28 01:34:09;;;;;;;29.38;5.13;;;;;;;;;;5095408;27;20055;-64
2023/12/28 01:36:35;;;;;;;32.03;5.78;;;;;;;;;;5119439;27;20078;-63
2023/12/28 01:39:01;;;;;;;31.90;5.93;;;;;;;;;;5117512;27;20039;-63
2023/12/28 01:41:27;;;;;;;30.83;5.15;;;;;;;;;;5097852;27;20063;-64
2023/12/28 01:43:54;;;;;;;31.35;4.88;;;;;;;;;;5099568;27;20177;-63
2023/12/28 01:46:21;;;;;;;26.73;4.85;;;;;;;;;;5098751;27;20042;-63
2023/12/28 01:48:49;;;;;;;27.40;5.00;;;;;;;;;;5123575;27;20073;-64
2023/12/28 01:51:16;;;;;;;32.75;6.45;;;;;;;;;;5096772;27;20504;-64
2023/12/28 01:53:43;;;;;;;37.45;5.80;;;;;;;;;;5096789;27;20039;-64
2023/12/28 01:56:10;;;;;;;32.13;5.43;;;;;;;;;;5098774;27;20494;-63
2023/12/28 01:58:36;;;;;;;33.22;5.25;;;;;;;;;;5118185;27;20494;-64
2023/12/28 02:01:02;;;;;;;39.85;5.75;;;;;;;;;;5117843;27;20051;-64
2023/12/28 02:03:29;;;;;;;26.58;4.65;;;;;;;;;;5118061;27;20038;-63
2023/12/28 02:05:55;;;;;;;35.17;5.20;;;;;;;;;;5100266;27;20406;-64
2023/12/28 02:08:21;;;;;;;23.40;4.68;;;;;;;;;;5094755;27;20106;-63
2023/12/28 02:10:48;;;;;;;35.20;6.00;;;;;;;;;;5098955;27;20603;-63
2023/12/28 02:13:14;;;;;;;28.10;4.68;;;;;;;;;;5118240;27;20090;-64
2023/12/28 02:15:40;;;;;;;30.67;4.55;;;;;;;;;;5118768;27;20042;-63
2023/12/28 02:18:12;;;;;;;35.08;5.05;;;;;;;;;;5115649;27;20056;-64
2023/12/28 02:20:40;;;;;;;29.10;5.30;;;;;;;;;;5116207;27;20115;-64
2023/12/28 02:23:06;;;;;;;27.02;5.28;;;;;;;;;;5121167;27;20581;-63
2023/12/28 02:25:33;;;;;;;38.67;6.57;;;;;;;;;;5115309;27;20050;-64
2023/12/28 02:27:59;;;;;;;29.55;4.78;;;;;;;;;;5116344;27;20364;-64
2023/12/28 02:30:26;;;;;;;37.60;4.90;;;;;;;;;;5098043;27;21914;-63
2023/12/28 02:32:56;;;;;;;30.65;4.63;;;;;;;;;;5117570;27;20047;-64
2023/12/28 02:35:29;;;;;;;38.38;5.80;;;;;;;;;;5102468;27;20376;-63
2023/12/28 02:37:56;;;;;;;28.53;5.10;;;;;;;;;;5105136;27;20051;-63
2023/12/28 02:40:23;;;;;;;24.02;4.90;;;;;;;;;;5103817;27;20128;-63
2023/12/28 02:42:49;;;;;;;27.38;4.22;;;;;;;;;;5100998;27;20387;-64
2023/12/28 02:45:16;;;;;;;18.48;3.97;;;;;;;;;;5100041;27;20177;-64
2023/12/28 02:47:44;;;;;;;20.17;4.25;;;;;;;;;;5118112;27;20043;-63
2023/12/28 02:50:10;;;;;;;19.08;3.30;;;;;;;;;;5118644;27;20138;-63
2023/12/28 02:52:36;;;;;;;22.63;4.22;;;;;;;;;;5118067;27;20038;-64
2023/12/28 02:55:02;;;;;;;20.15;3.58;;;;;;;;;;5096086;27;20043;-63
2023/12/28 02:57:28;;;;;;;21.92;3.33;;;;;;;;;;5117475;27;20035;-63
2023/12/28 02:59:56;;;;;;;23.42;3.30;;;;;;;;;;5099992;27;20502;-63
2023/12/28 03:02:23;;;;;;;14.35;3.10;;;;;;;;;;5098859;27;20882;-63
2023/12/28 03:04:49;;;;;;;15.82;3.03;;;;;;;;;;5116240;27;20055;-63
2023/12/28 03:07:15;;;;;;;20.38;3.13;;;;;;;;;;5095856;27;20047;-63
2023/12/28 03:09:42;;;;;;;20.92;3.38;;;;;;;;;;5118969;27;20074;-63
2023/12/28 03:12:08;;;;;;;15.00;4.05;;;;;;;;;;5097465;27;20070;-64
2023/12/28 03:14:34;;;;;;;16.00;3.47;;;;;;;;;;5104027;27;20048;-63
2023/12/28 03:17:01;;;;;;;15.57;3.42;;;;;;;;;;5119015;27;20142;-64
2023/12/28 03:19:27;;;;;;;18.35;3.42;;;;;;;;;;5079383;27;20400;-63
2023/12/28 03:21:53;;;;;;;19.75;3.53;;;;;;;;;;5104248;27;20031;-63
2023/12/28 03:24:19;;;;;;;16.60;3.13;;;;;;;;;;5114438;27;20058;-63
2023/12/28 03:26:45;;;;;;;17.17;3.85;;;;;;;;;;5100160;27;20382;-64
2023/12/28 03:29:12;;;;;;;20.75;3.10;;;;;;;;;;5097643;27;20103;-63
2023/12/28 03:31:40;;;;;;;23.25;3.17;;;;;;;;;;5099043;27;20051;-63
2023/12/28 03:34:06;;;;;;;23.45;4.43;;;;;;;;;;5081625;27;20078;-63
2023/12/28 03:36:32;;;;;;;20.05;3.80;;;;;;;;;;5097963;27;20520;-64
2023/12/28 03:38:58;;;;;;;17.52;4.05;;;;;;;;;;5113388;27;21379;-64
2023/12/28 03:41:24;;;;;;;29.02;3.88;;;;;;;;;;5094712;27;20046;-64
2023/12/28 03:43:51;;;;;;;16.17;3.45;;;;;;;;;;5116011;27;20743;-64
2023/12/28 03:46:17;;;;;;;21.52;5.97;;;;;;;;;;5097252;27;20328;-64
2023/12/28 03:48:43;;;;;;;20.80;3.15;;;;;;;;;;5097547;27;20543;-64
2023/12/28 03:51:14;;;;;;;16.77;3.80;;;;;;;;;;5097452;27;20047;-64
2023/12/28 03:53:40;;;;;;;20.70;3.22;;;;;;;;;;5115643;27;20494;-64
2023/12/28 03:56:06;;;;;;;18.67;3.30;;;;;;;;;;5117972;27;20403;-64
2023/12/28 03:58:33;;;;;;;14.43;2.97;;;;;;;;;;5115339;27;20039;-64
2023/12/28 04:00:59;;;;;;;21.15;3.60;;;;;;;;;;5118011;27;20039;-64
2023/12/28 04:03:26;;;;;;;11.90;3.20;;;;;;;;;;5099230;28;20057;-64
2023/12/28 04:05:52;;;;;;;14.13;3.67;;;;;;;;;;5098480;28;20382;-63
2023/12/28 04:08:18;;;;;;;13.30;2.90;;;;;;;;;;5113542;28;20047;-64
2023/12/28 04:10:45;;;;;;;20.65;3.00;;;;;;;;;;5114916;27;20499;-64
2023/12/28 04:13:11;;;;;;;19.15;3.30;;;;;;;;;;5096048;28;20368;-64
2023/12/28 04:15:37;;;;;;;17.83;3.50;;;;;;;;;;5098518;28;20062;-64
2023/12/28 04:18:03;;;;;;;15.57;3.35;;;;;;;;;;5116697;28;20106;-64
2023/12/28 04:20:29;;;;;;;16.98;4.35;;;;;;;;;;5115764;28;20035;-63
2023/12/28 04:22:55;;;;;;;22.95;4.18;;;;;;;;;;5117123;28;20113;-63
2023/12/28 04:25:22;;;;;;;25.90;4.38;;;;;;;;;;5113260;27;20047;-64
2023/12/28 04:27:49;;;;;;;16.58;4.20;;;;;;;;;;5095577;28;20052;-63
2023/12/28 04:30:15;;;;;;;18.75;4.10;;;;;;;;;;5095835;28;20048;-63
2023/12/28 04:32:41;;;;;;;16.23;3.80;;;;;;;;;;5100058;28;20058;-64
2023/12/28 04:35:07;;;;;;;21.08;3.08;;;;;;;;;;5100501;28;20133;-64
2023/12/28 04:37:35;;;;;;;17.55;3.97;;;;;;;;;;5121378;27;20070;-64
2023/12/28 04:40:03;;;;;;;24.30;3.58;;;;;;;;;;5120763;28;20051;-64
2023/12/28 04:42:29;;;;;;;31.55;4.90;;;;;;;;;;5117565;28;20040;-64
2023/12/28 04:44:55;;;;;;;26.35;4.10;;;;;;;;;;5116787;28;20378;-64
2023/12/28 04:47:21;;;;;;;23.98;4.22;;;;;;;;;;5093860;27;20047;-64
2023/12/28 04:49:47;;;;;;;22.70;4.00;;;;;;;;;;5115751;27;20476;-64
2023/12/28 04:52:14;;;;;;;22.58;5.38;;;;;;;;;;5119810;27;20047;-63
2023/12/28 04:54:41;;;;;;;32.40;6.68;;;;;;;;;;5117049;27;20051;-64
2023/12/28 04:57:08;;;;;;;17.92;4.05;;;;;;;;;;5120351;27;20039;-64
2023/12/28 04:59:39;;;;;;;26.40;5.00;;;;;;;;;;5120698;27;20097;-64
2023/12/28 05:02:06;;;;;;;22.33;4.28;;;;;;;;;;5097845;27;20393;-64
2023/12/28 05:04:32;;;;;;;24.77;4.55;;;;;;;;;;5120358;27;20032;-64
2023/12/28 05:06:58;;;;;;;25.92;4.47;;;;;;;;;;5102446;27;20054;-63
2023/12/28 05:09:24;;;;;;;31.13;4.70;;;;;;;;;;5099840;27;20510;-64
2023/12/28 05:11:51;;;;;;;29.75;4.13;;;;;;;;;;5085518;27;20047;-63
2023/12/28 05:14:17;;;;;;;21.60;3.50;;;;;;;;;;5107578;27;20075;-63
2023/12/28 05:16:43;;;;;;;31.48;4.53;;;;;;;;;;5121235;27;20073;-64
2023/12/28 05:19:09;;;;;;;30.10;5.50;;;;;;;;;;5121881;27;20084;-63
2023/12/28 05:21:35;;;;;;;22.60;4.45;;;;;;;;;;5118876;27;20055;-63
2023/12/28 05:24:02;;;;;;;23.30;3.97;;;;;;;;;;5121601;27;20418;-63
2023/12/28 05:26:28;;;;;;;39.03;5.70;;;;;;;;;;5117035;27;20066;-63
2023/12/28 05:28:54;;;;;;;33.63;5.03;;;;;;;;;;5111497;27;20048;-64
2023/12/28 05:31:20;;;;;;;28.08;4.70;;;;;;;;;;5078834;28;20162;-64
2023/12/28 05:33:46;;;;;;;27.58;4.65;;;;;;;;;;5098959;28;20110;-64
2023/12/28 05:36:12;;;;;;;30.70;4.88;;;;;;;;;;5098375;28;20195;-64
2023/12/28 05:38:39;;;;;;;29.67;5.07;;;;;;;;;;5081384;28;20439;-64
2023/12/28 05:41:05;;;;;;;31.67;5.90;;;;;;;;;;5080182;28;20063;-63
2023/12/28 05:43:31;;;;;;;32.55;5.20;;;;;;;;;;5085354;28;20090;-64
2023/12/28 05:45:57;;;;;;;31.08;5.38;;;;;;;;;;5084772;28;20046;-63
2023/12/28 05:48:23;;;;;;;40.00;8.23;;;;;;;;;;5101825;28;20427;-64
2023/12/28 05:50:50;;;;;;;39.13;6.32;;;;;;;;;;5079354;28;20132;-64
2023/12/28 05:53:16;;;;;;;37.08;5.47;;;;;;;;;;5079818;28;20403;-64
2023/12/28 05:55:42;;;;;;;40.97;5.80;;;;;;;;;;5098983;28;20390;-63
2023/12/28 05:58:09;;;;;;;36.40;6.25;;;;;;;;;;5064325;28;20743;-64
2023/12/28 06:00:36;;;;;;;30.33;4.95;;;;;;;;;;5080534;28;20399;-63
2023/12/28 06:03:03;;;;;;;27.35;4.65;;;;;;;;;;5096834;28;20088;-63
2023/12/28 06:05:29;;;;;;;35.80;6.07;;;;;;;;;;5097066;28;20058;-64
2023/12/28 06:07:55;;;;;;;34.83;6.25;;;;;;;;;;5104648;28;20052;-63
2023/12/28 06:10:21;;;;;;;36.78;5.63;;;;;;;;;;5088818;28;20108;-64
2023/12/28 06:12:48;;;;;;;34.10;6.22;;;;;;;;;;5081171;28;20114;-63
2023/12/28 06:15:14;;;;;;;29.42;5.40;;;;;;;;;;5106762;28;20040;-64
2023/12/28 06:17:40;;;;;;;23.75;3.92;;;;;;;;;;5088197;28;20063;-64
2023/12/28 06:20:08;;;;;;;33.83;5.60;;;;;;;;;;5106426;28;20395;-64
2023/12/28 06:22:34;;;;;;;39.25;5.45;;;;;;;;;;5105887;28;20044;-63
2023/12/28 06:25:00;;;;;;;28.27;5.55;;;;;;;;;;5079395;28;20153;-63
2023/12/28 06:27:26;;;;;;;26.85;5.07;;;;;;;;;;5098275;28;20059;-64
2023/12/28 06:29:53;;;;;;;29.13;5.47;;;;;;;;;;5068596;28;20063;-64
2023/12/28 06:32:19;;;;;;;24.20;4.95;;;;;;;;;;5096608;28;20130;-63
2023/12/28 06:34:45;;;;;;;28.70;5.72;;;;;;;;;;5085555;28;20506;-63
2023/12/28 06:37:11;;;;;;;36.88;7.43;;;;;;;;;;5088243;28;20098;-63
2023/12/28 06:39:37;;;;;;;35.75;5.32;;;;;;;;;;5091012;28;20112;-64
2023/12/28 06:42:04;;;;;;;38.20;6.07;;;;;;;;;;5098460;28;20134;-64
2023/12/28 06:44:30;;;;;;;29.75;5.72;;;;;;;;;;5099433;28;20044;-64
2023/12/28 06:46:56;;;;;;;29.23;5.93;;;;;;;;;;5096125;28;20066;-63
2023/12/28 06:49:22;;;;;;;37.67;7.65;;;;;;;;;;5087072;28;20078;-63
2023/12/28 06:51:48;;;;;;;36.40;5.88;;;;;;;;;;5098138;28;20052;-63
2023/12/28 06:54:15;;;;;;;27.38;6.63;;;;;;;;;;5090829;28;20139;-63
2023/12/28 06:56:42;;;;;;;23.38;5.07;;;;;;;;;;5097541;28;20051;-63
2023/12/28 06:59:11;;;;;;;35.38;7.03;;;;;;;;;;5096202;28;20046;-63
2023/12/28 07:01:38;;;;;;;49.85;6.95;;;;;;;;;;5097051;28;20115;-63
2023/12/28 07:04:04;;;;;;;34.08;6.80;;;;;;;;;;5096757;28;20039;-64
2023/12/28 07:06:31;;;;;;;34.05;5.10;;;;;;;;;;5095213;28;20039;-64
2023/12/28 07:08:57;;;;;;;38.65;6.93;;;;;;;;;;5106924;27;20055;-64
2023/12/28 07:11:23;;;;;;;38.60;7.45;;;;;;;;;;5092874;28;20533;-65
2023/12/28 07:13:49;;;;;;;32.50;5.25;;;;;;;;;;5091799;28;20132;-65
2023/12/28 07:16:16;;;;;;;35.60;6.40;;;;;;;;;;5089811;28;20048;-64
2023/12/28 07:18:42;;;;;;;41.30;6.07;;;;;;;;;;5096418;28;20032;-63
2023/12/28 07:21:09;;;;;;;30.80;6.95;;;;;;;;;;5097311;28;20200;-63
2023/12/28 07:23:36;;;;;;;39.70;7.32;;;;;;;;;;5100944;28;20047;-63
2023/12/28 07:26:02;;;;;;;39.40;6.93;;;;;;;;;;5098709;28;20074;-63
2023/12/28 07:28:28;;;;;;;33.78;7.40;;;;;;;;;;5090873;27;20077;-64
2023/12/28 07:30:55;;;;;;;48.58;9.68;;;;;;;;;;5121623;27;20070;-64
2023/12/28 07:33:21;;;;;;;44.45;7.25;;;;;;;;;;5102214;28;20036;-63
2023/12/28 07:35:47;;;;;;;44.88;7.65;;;;;;;;;;5104082;27;20042;-63
2023/12/28 07:38:13;;;;;;;45.67;6.80;;;;;;;;;;5119637;27;20051;-63
2023/12/28 07:40:39;;;;;;;43.65;9.00;;;;;;;;;;5103833;27;20043;-63
2023/12/28 07:43:06;;;;;;;43.40;7.68;;;;;;;;;;5119489;27;20050;-71
2023/12/28 07:45:32;;;;;;;37.78;6.88;;;;;;;;;;5101327;27;20046;-64
2023/12/28 07:48:00;;;;;;;44.78;7.18;;;;;;;;;;5122298;27;20055;-64
2023/12/28 07:50:26;;;;;;;37.88;7.75;;;;;;;;;;5119523;27;20050;-63
2023/12/28 07:52:52;;;;;;;41.40;8.13;;;;;;;;;;5117456;27;20143;-64
2023/12/28 07:55:19;;;;;;;50.05;9.77;;;;;;;;;;5125269;27;20047;-64
2023/12/28 07:57:45;;;;;;;51.65;8.95;;;;;;;;;;5120996;28;20122;-64
2023/12/28 08:00:12;;;;;;;54.60;8.90;;;;;;;;;;5104214;28;20051;-64
2023/12/28 08:02:38;;;;;;;40.33;6.57;;;;;;;;;;5119377;28;20504;-64
2023/12/28 08:05:05;;;;;;;52.58;9.35;;;;;;;;;;5103026;28;20058;-64
2023/12/28 08:07:31;;;;;;;43.70;8.52;;;;;;;;;;5103487;28;20128;-64
2023/12/28 08:09:57;;;;;;;51.58;10.75;;;;;;;;;;5120501;28;20110;-64
2023/12/28 08:12:27;;;;;;;47.03;9.25;;;;;;;;;;5122020;28;20039;-63
2023/12/28 08:14:53;;;;;;;38.08;7.88;;;;;;;;;;5121727;28;20170;-64
2023/12/28 08:17:19;;;;;;;46.80;8.82;;;;;;;;;;5123723;28;20047;-63
2023/12/28 08:19:45;;;;;;;45.40;8.98;;;;;;;;;;5098696;28;20062;-63
2023/12/28 08:22:11;;;;;;;43.53;8.45;;;;;;;;;;5111270;28;20044;-63
2023/12/28 08:24:38;;;;;;;47.65;7.15;;;;;;;;;;5116124;27;20035;-64
2023/12/28 08:27:04;;;;;;;54.20;8.38;;;;;;;;;;5104545;27;20054;-69
2023/12/28 08:29:30;;;;;;;56.03;10.25;;;;;;;;;;5103485;27;21291;-66
2023/12/28 08:31:56;;;;;;;43.97;9.02;;;;;;;;;;5119326;27;20399;-71
2023/12/28 08:34:23;;;;;;;46.83;8.38;;;;;;;;;;5106298;27;20043;-64
2023/12/28 08:36:49;;;;;;;48.00;8.57;;;;;;;;;;5120339;27;20043;-64
2023/12/28 08:39:15;;;;;;;50.63;10.02;;;;;;;;;;5120182;27;20073;-64
2023/12/28 08:41:41;;;;;;;45.67;8.32;;;;;;;;;;5122580;27;20055;-64
2023/12/28 08:44:07;;;;;;;47.10;8.82;;;;;;;;;;5099801;27;20497;-64
2023/12/28 08:46:33;;;;;;;54.35;10.40;;;;;;;;;;5105464;27;20118;-64
2023/12/28 08:49:00;;;;;;;42.58;7.40;;;;;;;;;;5103487;27;20558;-64
2023/12/28 08:51:26;;;;;;;41.97;7.60;;;;;;;;;;5121368;27;20071;-64
2023/12/28 08:53:52;;;;;;;47.70;8.15;;;;;;;;;;5102895;27;20078;-64
2023/12/28 08:56:20;;;;;;;45.78;8.95;;;;;;;;;;5107175;27;20083;-64
2023/12/28 08:58:47;;;;;;;43.50;8.18;;;;;;;;;;5102953;27;20074;-64
2023/12/28 09:01:18;;;;;;;37.83;9.40;;;;;;;;;;5100844;27;20092;-64
2023/12/28 09:03:44;;;;;;;51.70;8.50;;;;;;;;;;5103302;27;20138;-63
2023/12/28 09:06:10;;;;;;;39.78;7.45;;;;;;;;;;5106110;27;20154;-68
2023/12/28 09:08:36;;;;;;;40.70;8.65;;;;;;;;;;5117804;27;20063;-66
2023/12/28 09:11:03;;;;;;;43.55;7.28;;;;;;;;;;5117371;27;20057;-65
2023/12/28 09:13:29;;;;;;;47.65;9.38;;;;;;;;;;5102886;27;20332;-65
2023/12/28 09:15:55;;;;;;;45.00;7.90;;;;;;;;;;5118320;27;20045;-65
2023/12/28 09:18:21;;;;;;;51.92;8.50;;;;;;;;;;5120554;27;20487;-64
2023/12/28 09:20:49;;;;;;;49.33;7.95;;;;;;;;;;5118608;27;20039;-64
2023/12/28 09:23:16;;;;;;;50.63;9.43;;;;;;;;;;5100586;27;20045;-64
2023/12/28 09:25:42;;;;;;;51.80;8.65;;;;;;;;;;5103688;27;20371;-64
2023/12/28 09:28:08;;;;;;;58.60;9.40;;;;;;;;;;5119996;27;20122;-64
2023/12/28 09:30:34;;;;;;;44.65;9.55;;;;;;;;;;5106968;27;20461;-64
2023/12/28 09:33:00;;;;;;;44.42;8.05;;;;;;;;;;5104549;28;21487;-64
2023/12/28 09:35:27;;;;;;;41.25;7.55;;;;;;;;;;5066609;28;20043;-67
2023/12/28 09:37:54;;;;;;;44.63;8.77;;;;;;;;;;5085169;28;20476;-69
2023/12/28 09:40:20;;;;;;;39.05;7.43;;;;;;;;;;5103580;28;20044;-66
2023/12/28 09:42:52;;;;;;;38.10;7.53;;;;;;;;;;5083690;28;20050;-66
2023/12/28 09:45:18;;;;;;;38.15;6.63;;;;;;;;;;5102143;28;20088;-66
2023/12/28 09:47:45;;;;;;;33.55;6.45;;;;;;;;;;5069267;28;20048;-66
2023/12/28 09:50:13;;;;;;;38.40;7.50;;;;;;;;;;5084743;28;20090;-64
2023/12/28 09:52:39;;;;;;;43.53;8.95;;;;;;;;;;5100985;28;20115;-69
2023/12/28 09:55:06;;;;;;;39.83;7.15;;;;;;;;;;5079185;28;20395;-64
2023/12/28 09:57:32;;;;;;;43.85;8.48;;;;;;;;;;5101522;27;20047;-64
2023/12/28 09:59:58;;;;;;;40.85;7.38;;;;;;;;;;5103036;27;20157;-64
2023/12/28 10:02:24;;;;;;;40.60;6.65;;;;;;;;;;5103285;27;20044;-64
2023/12/28 10:04:50;;;;;;;42.00;7.15;;;;;;;;;;5103028;27;20043;-64
2023/12/28 10:07:17;;;;;;;43.63;8.13;;;;;;;;;;5103031;28;20487;-65
2023/12/28 10:09:43;;;;;;;35.15;6.55;;;;;;;;;;5103916;28;20027;-64
2023/12/28 10:12:10;;;;;;;39.17;7.07;;;;;;;;;;5084148;28;20078;-64
2023/12/28 10:14:36;;;;;;;42.92;8.15;;;;;;;;;;5103776;27;20039;-64
2023/12/28 10:17:02;;;;;;;31.60;5.78;;;;;;;;;;5105179;28;20134;-64
2023/12/28 10:19:28;;;;;;;37.95;6.93;;;;;;;;;;5104025;28;20043;-64
2023/12/28 10:21:55;;;;;;;35.47;6.18;;;;;;;;;;5103473;28;20052;-65
2023/12/28 10:24:21;;;;;;;41.70;6.60;;;;;;;;;;5103494;27;20329;-64
2023/12/28 10:26:47;;;;;;;39.08;7.10;;;;;;;;;;5101051;28;20047;-65
2023/12/28 10:29:13;;;;;;;34.40;6.38;;;;;;;;;;5109335;27;20204;-65
2023/12/28 10:31:43;;;;;;;47.03;7.60;;;;;;;;;;5116408;27;20114;-64
2023/12/28 10:34:09;;;;;;;45.83;8.73;;;;;;;;;;5119979;27;20039;-64
2023/12/28 10:36:37;;;;;;;37.90;5.80;;;;;;;;;;5097455;27;20054;-64
2023/12/28 10:39:05;;;;;;;32.33;6.80;;;;;;;;;;5116643;27;20050;-64
2023/12/28 10:41:35;;;;;;;31.52;5.90;;;;;;;;;;5118802;27;20578;-68
2023/12/28 10:44:05;;;;;;;37.13;6.60;;;;;;;;;;5117498;27;20074;-67
2023/12/28 10:46:32;;;;;;;37.58;7.68;;;;;;;;;;5099451;27;20091;-67
2023/12/28 10:49:00;;;;;;;41.28;7.88;;;;;;;;;;5117883;27;20435;-65
2023/12/28 10:51:27;;;;;;;47.45;7.15;;;;;;;;;;5099826;27;20035;-66
2023/12/28 10:53:59;;;;;;;40.08;6.80;;;;;;;;;;5116172;27;20394;-65
2023/12/28 10:56:29;;;;;;;38.30;7.25;;;;;;;;;;5083302;27;20039;-66
2023/12/28 10:59:17;;;;;;;35.60;8.23;;;;;;;;;;5118771;27;20039;-65
2023/12/28 11:01:47;;;;;;;38.83;7.35;;;;;;;;;;5118878;27;20386;-65
2023/12/28 11:04:19;;;;;;;40.88;8.10;;;;;;;;;;5101168;27;20391;-65
2023/12/28 11:06:45;;;;;;;38.33;7.10;;;;;;;;;;5080186;27;20054;-65
2023/12/28 11:09:12;;;;;;;38.67;6.47;;;;;;;;;;5099484;27;20134;-66
2023/12/28 11:11:38;;;;;;;39.85;7.53;;;;;;;;;;5097329;27;20440;-65
2023/12/28 11:14:05;;;;;;;31.40;6.35;;;;;;;;;;5116651;27;20108;-65
2023/12/28 11:16:32;;;;;;;36.00;7.30;;;;;;;;;;5119199;27;20086;-65
2023/12/28 11:18:59;;;;;;;34.63;6.90;;;;;;;;;;5122086;27;20031;-65
2023/12/28 11:21:26;;;;;;;41.90;6.53;;;;;;;;;;5100157;27;20082;-64
2023/12/28 11:23:53;;;;;;;32.08;5.88;;;;;;;;;;5100769;28;20035;-65
2023/12/28 11:26:20;;;;;;;35.55;6.63;;;;;;;;;;5100886;27;20161;-64
2023/12/28 11:28:47;;;;;;;36.83;7.20;;;;;;;;;;5100746;27;20129;-65
2023/12/28 11:31:15;;;;;;;31.25;5.88;;;;;;;;;;5115908;27;20047;-64
2023/12/28 11:33:46;;;;;;;44.65;7.32;;;;;;;;;;5119266;27;20084;-64
2023/12/28 11:36:18;;;;;;;42.20;7.40;;;;;;;;;;5114145;27;20093;-64
2023/12/28 11:38:45;;;;;;;48.42;11.32;;;;;;;;;;5116525;27;20039;-64
2023/12/28 11:41:11;;;;;;;36.58;6.93;;;;;;;;;;5116513;27;20101;-65
2023/12/28 11:43:37;;;;;;;46.05;9.40;;;;;;;;;;5094252;27;20031;-64
2023/12/28 11:46:05;;;;;;;38.33;6.80;;;;;;;;;;5097953;27;20036;-70
2023/12/28 11:48:32;;;;;;;48.08;8.35;;;;;;;;;;5099428;27;20051;-65
2023/12/28 11:50:59;;;;;;;35.88;6.38;;;;;;;;;;5116311;27;20133;-64
2023/12/28 11:53:26;;;;;;;43.88;8.00;;;;;;;;;;5082497;27;20467;-65
2023/12/28 11:55:52;;;;;;;39.53;7.78;;;;;;;;;;5116677;27;20042;-65
2023/12/28 11:58:20;;;;;;;40.25;7.95;;;;;;;;;;5117957;27;20040;-65
2023/12/28 12:00:46;;;;;;;35.25;5.88;;;;;;;;;;5099872;28;20095;-65
2023/12/28 12:03:12;;;;;;;38.38;8.07;;;;;;;;;;5117321;27;20044;-65
2023/12/28 12:05:39;;;;;;;45.40;8.65;;;;;;;;;;5100201;28;20153;-65
2023/12/28 12:08:08;;;;;;;49.80;8.95;;;;;;;;;;5120381;27;20084;-65
2023/12/28 12:10:35;;;;;;;43.47;8.15;;;;;;;;;;5116776;27;20063;-65
2023/12/28 12:13:02;;;;;;;42.08;8.52;;;;;;;;;;5118182;27;20047;-65
2023/12/28 12:15:29;;;;;;;42.10;8.32;;;;;;;;;;5098412;28;20138;-65
2023/12/28 12:17:55;;;;;;;56.67;7.97;;;;;;;;;;5114163;27;20412;-65
2023/12/28 12:20:22;;;;;;;39.13;6.75;;;;;;;;;;5116737;28;20097;-66
2023/12/28 12:22:49;;;;;;;36.70;9.95;;;;;;;;;;5101000;28;20043;-65
2023/12/28 12:25:18;;;;;;;41.85;7.10;;;;;;;;;;5095923;28;20051;-65
2023/12/28 12:27:44;;;;;;;43.03;7.45;;;;;;;;;;5120592;27;20039;-65
2023/12/28 12:30:10;;;;;;;47.70;8.00;;;;;;;;;;5116691;28;20509;-65
2023/12/28 12:32:39;;;;;;;46.55;8.30;;;;;;;;;;5105071;28;20157;-64
2023/12/28 12:35:05;;;;;;;38.10;7.75;;;;;;;;;;5105866;28;20050;-64
2023/12/28 12:37:32;;;;;;;41.20;7.38;;;;;;;;;;5097134;28;20093;-65
2023/12/28 12:39:58;;;;;;;35.40;7.13;;;;;;;;;;5116247;27;20061;-64
2023/12/28 12:42:24;;;;;;;35.03;7.03;;;;;;;;;;5101532;28;20039;-65
2023/12/28 12:44:50;;;;;;;33.63;6.95;;;;;;;;;;5119042;28;20146;-65
2023/12/28 12:47:16;;;;;;;40.80;7.50;;;;;;;;;;5100975;28;20549;-65
2023/12/28 12:49:44;;;;;;;42.28;6.60;;;;;;;;;;5081200;28;20051;-64
2023/12/28 12:52:10;;;;;;;49.92;8.95;;;;;;;;;;5094894;28;20055;-65
2023/12/28 12:54:36;;;;;;;47.22;8.60;;;;;;;;;;5098949;28;20494;-65
2023/12/28 12:57:03;;;;;;;41.10;7.00;;;;;;;;;;5099793;28;20048;-64
2023/12/28 12:59:30;;;;;;;39.92;7.88;;;;;;;;;;5095006;28;20057;-65
2023/12/28 13:01:56;;;;;;;41.88;6.90;;;;;;;;;;5116841;28;20486;-65
2023/12/28 13:04:22;;;;;;;42.25;7.38;;;;;;;;;;5096808;28;20036;-65
2023/12/28 13:06:49;;;;;;;35.60;5.80;;;;;;;;;;5096575;28;20088;-65
2023/12/28 13:09:15;;;;;;;33.35;7.35;;;;;;;;;;5100568;28;20075;-65
2023/12/28 13:11:42;;;;;;;39.33;6.88;;;;;;;;;;5120026;27;21966;-64
2023/12/28 13:14:09;;;;;;;32.15;6.65;;;;;;;;;;5099355;27;20047;-64
2023/12/28 13:16:35;;;;;;;42.33;7.75;;;;;;;;;;5118638;27;20039;-65
2023/12/28 13:19:01;;;;;;;32.65;6.75;;;;;;;;;;5103473;27;20058;-64
2023/12/28 13:21:27;;;;;;;40.10;6.55;;;;;;;;;;5118749;27;20036;-65
2023/12/28 13:23:53;;;;;;;30.27;5.20;;;;;;;;;;5086375;27;20040;-64
2023/12/28 13:26:20;;;;;;;32.03;6.05;;;;;;;;;;5099579;27;20060;-65
2023/12/28 13:28:46;;;;;;;39.10;6.82;;;;;;;;;;5117734;27;20047;-65
2023/12/28 13:31:12;;;;;;;38.60;6.65;;;;;;;;;;5122029;27;20115;-65
2023/12/28 13:33:38;;;;;;;33.00;6.47;;;;;;;;;;5100887;27;20074;-64
2023/12/28 13:36:05;;;;;;;36.95;7.53;;;;;;;;;;5102419;27;20050;-65
2023/12/28 13:38:31;;;;;;;39.70;6.40;;;;;;;;;;5120807;27;20532;-65
2023/12/28 13:40:57;;;;;;;35.97;5.88;;;;;;;;;;5102021;27;20125;-64
2023/12/28 13:43:23;;;;;;;38.30;6.95;;;;;;;;;;5100293;27;20092;-65
2023/12/28 13:45:49;;;;;;;37.08;6.43;;;;;;;;;;5100923;27;20429;-65
2023/12/28 13:48:15;;;;;;;43.75;7.00;;;;;;;;;;5100627;27;20096;-64
2023/12/28 13:50:42;;;;;;;40.60;9.95;;;;;;;;;;5099583;27;20055;-65
2023/12/28 13:53:09;;;;;;;39.17;6.75;;;;;;;;;;5118949;27;20043;-65
2023/12/28 13:55:35;;;;;;;34.90;6.13;;;;;;;;;;5100223;27;20502;-64
2023/12/28 13:58:03;;;;;;;38.75;6.43;;;;;;;;;;5116917;27;20069;-65
2023/12/28 14:00:29;;;;;;;31.70;5.70;;;;;;;;;;5102563;27;20397;-65
2023/12/28 14:02:55;;;;;;;43.65;7.72;;;;;;;;;;5102438;27;20039;-63
2023/12/28 14:05:23;;;;;;;38.60;6.18;;;;;;;;;;5102885;27;20050;-64
2023/12/28 14:07:49;;;;;;;37.80;8.13;;;;;;;;;;5121960;27;20051;-64
2023/12/28 14:10:15;;;;;;;36.63;7.03;;;;;;;;;;5119508;27;20065;-64
2023/12/28 14:12:41;;;;;;;39.50;7.30;;;;;;;;;;5103080;27;20066;-64
2023/12/28 14:15:08;;;;;;;31.98;6.55;;;;;;;;;;5119507;27;20054;-64
2023/12/28 14:17:34;;;;;;;30.10;5.13;;;;;;;;;;5100176;27;20063;-65
2023/12/28 14:20:00;;;;;;;40.13;5.90;;;;;;;;;;5102220;27;20055;-64
2023/12/28 14:22:27;;;;;;;32.25;6.82;;;;;;;;;;5118050;27;20055;-63
2023/12/28 14:24:53;;;;;;;33.72;5.97;;;;;;;;;;5119156;27;20086;-63
2023/12/28 14:27:19;;;;;;;39.75;6.40;;;;;;;;;;5120137;27;20380;-64